Time;durP1;ratioP1;P1;durP2;ratioP2;P2;SDS_P1;SDS_P2;PMS_P1;PMS_P2;Temp;Humidity;BMP_temperature;BMP_pressure;BME280_temperature;BME280_humidity;BME280_pressure;Samples;Min_cycle;Max_cycle;Signal;HPM_P1;HPM_P2
2023/04/23 00:01:34;;;;;;;18.03;11.83;;;15.40;94.00;;;;;;5031862;28;20397;-72
2023/04/23 00:04:00;;;;;;;14.30;11.77;;;15.40;94.00;;;;;;5022920;28;20438;-71
2023/04/23 00:06:29;;;;;;;14.13;12.63;;;15.40;94.00;;;;;;5016547;28;20458;-71
2023/04/23 00:08:59;;;;;;;14.37;11.40;;;15.40;94.00;;;;;;5027015;28;20434;-72
2023/04/23 00:11:25;;;;;;;16.87;12.07;;;15.40;94.00;;;;;;5031601;28;20818;-71
2023/04/23 00:13:50;;;;;;;13.43;11.57;;;15.40;94.70;;;;;;5025993;28;20451;-73
2023/04/23 00:16:18;;;;;;;13.90;12.33;;;15.40;94.00;;;;;;5015439;28;20182;-72
2023/04/23 00:18:44;;;;;;;12.43;11.13;;;15.30;94.00;;;;;;5031213;28;20442;-70
2023/04/23 00:21:10;;;;;;;18.77;11.27;;;15.30;96.30;;;;;;5030350;28;20430;-72
2023/04/23 00:23:35;;;;;;;12.57;10.53;;;15.30;99.90;;;;;;5027316;28;20237;-72
2023/04/23 00:26:01;;;;;;;13.43;9.87;;;15.30;99.70;;;;;;5019787;28;20342;-72
2023/04/23 00:28:27;;;;;;;11.33;10.20;;;15.30;99.90;;;;;;5035641;28;20179;-71
2023/04/23 00:30:53;;;;;;;12.37;10.17;;;15.30;99.90;;;;;;5021801;28;20179;-70
2023/04/23 00:33:18;;;;;;;14.27;11.33;;;15.40;99.90;;;;;;5036116;28;20414;-71
2023/04/23 00:35:44;;;;;;;15.67;10.03;;;15.30;99.90;;;;;;5034339;28;20203;-71
2023/04/23 00:38:10;;;;;;;11.90;10.67;;;15.40;99.90;;;;;;5017099;28;20222;-72
2023/04/23 00:40:36;;;;;;;10.90;9.80;;;15.30;99.90;;;;;;5016196;28;20436;-70
2023/04/23 00:43:03;;;;;;;13.40;10.50;;;15.30;99.90;;;;;;5034410;28;20283;-72
2023/04/23 00:45:31;;;;;;;12.43;11.00;;;15.30;99.90;;;;;;5033471;28;20218;-71
2023/04/23 00:47:57;;;;;;;10.77;8.70;;;15.30;99.90;;;;;;5033974;28;20465;-72
2023/04/23 00:50:23;;;;;;;13.00;10.70;;;15.30;99.90;;;;;;5034770;28;20402;-72
2023/04/23 00:52:49;;;;;;;11.60;10.37;;;15.30;99.90;;;;;;5033896;28;20454;-72
2023/04/23 00:55:15;;;;;;;10.97;9.13;;;15.30;99.90;;;;;;5035396;28;20206;-71
2023/04/23 00:57:41;;;;;;;13.27;10.97;;;15.20;99.90;;;;;;5020521;28;20754;-71
2023/04/23 01:00:08;;;;;;;11.53;10.20;;;15.30;99.90;;;;;;5023852;28;20214;-72
2023/04/23 01:02:35;;;;;;;12.00;10.53;;;15.30;99.90;;;;;;5031304;28;20481;-71
2023/04/23 01:05:03;;;;;;;12.00;10.80;;;15.20;99.90;;;;;;5034140;28;20942;-73
2023/04/23 01:07:33;;;;;;;14.17;11.70;;;15.10;99.90;;;;;;5035201;28;20441;-71
2023/04/23 01:09:59;;;;;;;11.03;9.93;;;15.10;99.90;;;;;;5032322;28;20525;-72
2023/04/23 01:12:25;;;;;;;13.37;11.93;;;15.00;99.90;;;;;;5034996;28;20410;-73
2023/04/23 01:14:51;;;;;;;13.03;11.73;;;15.00;99.90;;;;;;5028433;28;20439;-72
2023/04/23 01:17:17;;;;;;;12.90;10.67;;;15.00;99.90;;;;;;5034650;28;20402;-71
2023/04/23 01:19:43;;;;;;;14.57;12.10;;;15.00;99.90;;;;;;5032988;28;20420;-72
2023/04/23 01:22:10;;;;;;;14.73;10.73;;;14.90;99.90;;;;;;5032692;28;20270;-71
2023/04/23 01:24:37;;;;;;;18.83;10.97;;;15.00;99.90;;;;;;5025234;28;20310;-72
2023/04/23 01:27:03;;;;;;;13.97;11.87;;;15.00;99.90;;;;;;5035053;28;20438;-71
2023/04/23 01:29:30;;;;;;;16.83;11.30;;;15.00;99.90;;;;;;5028919;28;20452;-72
2023/04/23 01:31:56;;;;;;;15.17;11.63;;;14.90;99.90;;;;;;5014294;28;20196;-72
2023/04/23 01:34:22;;;;;;;15.00;11.43;;;14.90;99.90;;;;;;5028171;28;20406;-72
2023/04/23 01:36:48;;;;;;;13.83;11.27;;;14.80;99.90;;;;;;5026324;28;20449;-73
2023/04/23 01:39:14;;;;;;;16.33;11.63;;;14.80;99.90;;;;;;5015104;28;20176;-72
2023/04/23 01:41:40;;;;;;;16.40;11.43;;;14.80;99.90;;;;;;5013781;28;20638;-73
2023/04/23 01:44:06;;;;;;;13.97;12.43;;;14.80;99.90;;;;;;5015113;28;20400;-73
2023/04/23 01:46:32;;;;;;;14.10;12.70;;;14.70;99.90;;;;;;5027133;28;20458;-72
2023/04/23 01:48:58;;;;;;;13.00;11.60;;;14.70;99.90;;;;;;5015505;28;20179;-72
2023/04/23 01:51:24;;;;;;;13.80;12.30;;;14.60;99.90;;;;;;5024360;28;20525;-72
2023/04/23 01:53:50;;;;;;;15.50;12.13;;;14.60;99.90;;;;;;5034231;28;20184;-73
2023/04/23 01:56:21;;;;;;;13.33;11.33;;;14.50;99.90;;;;;;5032625;28;20484;-73
2023/04/23 01:58:47;;;;;;;14.33;11.90;;;14.50;99.90;;;;;;5035031;28;20182;-73
2023/04/23 02:01:13;;;;;;;15.00;11.70;;;14.40;99.90;;;;;;5032544;28;20426;-73
2023/04/23 02:03:38;;;;;;;13.10;10.87;;;14.30;99.90;;;;;;5028194;28;20546;-72
2023/04/23 02:06:05;;;;;;;17.73;15.00;;;14.20;99.90;;;;;;5017479;28;20230;-73
2023/04/23 02:08:31;;;;;;;22.03;17.00;;;14.00;99.90;;;;;;5016682;28;20443;-73
2023/04/23 02:10:56;;;;;;;24.20;18.50;;;13.80;99.90;;;;;;5032183;28;20426;-72
2023/04/23 02:13:22;;;;;;;26.83;22.00;;;13.50;99.90;;;;;;5034373;28;20191;-73
2023/04/23 02:15:48;;;;;;;27.43;20.87;;;13.40;99.90;;;;;;5033099;28;20180;-72
2023/04/23 02:18:14;;;;;;;29.33;22.43;;;13.30;99.90;;;;;;5033287;28;20202;-72
2023/04/23 02:20:40;;;;;;;30.30;24.20;;;13.20;99.90;;;;;;5030310;28;20174;-72
2023/04/23 02:23:09;;;;;;;30.50;23.93;;;13.10;99.90;;;;;;5018109;28;20262;-72
2023/04/23 02:25:37;;;;;;;34.33;26.23;;;13.00;99.90;;;;;;5015890;28;20413;-72
2023/04/23 02:28:05;;;;;;;44.30;28.00;;;13.00;99.90;;;;;;5025637;28;20453;-72
2023/04/23 02:30:32;;;;;;;37.43;27.63;;;12.90;99.90;;;;;;5033380;28;20375;-72
2023/04/23 02:32:58;;;;;;;34.63;25.57;;;12.90;99.90;;;;;;5029621;28;20869;-72
2023/04/23 02:35:24;;;;;;;36.93;28.47;;;12.90;99.90;;;;;;5033903;28;20407;-72
2023/04/23 02:37:50;;;;;;;37.37;28.23;;;12.80;99.90;;;;;;5032257;28;20402;-72
2023/04/23 02:40:16;;;;;;;36.50;27.13;;;12.80;99.90;;;;;;5031011;28;20738;-72
2023/04/23 02:42:41;;;;;;;35.97;26.30;;;12.70;99.90;;;;;;5014301;28;20231;-72
2023/04/23 02:45:07;;;;;;;35.30;25.80;;;12.50;99.90;;;;;;5016265;28;20179;-72
2023/04/23 02:47:33;;;;;;;39.10;27.30;;;12.30;99.90;;;;;;5032252;28;20712;-71
2023/04/23 02:50:02;;;;;;;34.10;26.70;;;12.30;99.90;;;;;;5034835;28;20566;-72
2023/04/23 02:52:27;;;;;;;33.53;25.43;;;12.30;99.90;;;;;;5032967;28;20928;-72
2023/04/23 02:54:53;;;;;;;32.90;24.60;;;12.20;99.90;;;;;;5033635;28;20456;-72
2023/04/23 02:57:19;;;;;;;31.63;24.07;;;12.10;99.90;;;;;;5031743;28;20175;-72
2023/04/23 02:59:45;;;;;;;33.93;25.70;;;12.00;99.90;;;;;;5026696;28;20253;-72
2023/04/23 03:02:10;;;;;;;35.53;23.90;;;12.00;99.90;;;;;;5014082;28;21068;-72
2023/04/23 03:04:36;;;;;;;33.40;22.50;;;11.90;99.90;;;;;;5013468;28;20500;-72
2023/04/23 03:07:02;;;;;;;31.20;23.30;;;11.80;99.90;;;;;;5013806;28;20561;-72
2023/04/23 03:09:27;;;;;;;30.50;22.20;;;11.70;99.90;;;;;;5020446;28;20258;-72
2023/04/23 03:11:53;;;;;;;29.27;21.27;;;11.70;99.90;;;;;;5032495;28;20183;-72
2023/04/23 03:14:19;;;;;;;27.77;21.30;;;11.70;99.90;;;;;;5028137;28;20177;-72
2023/04/23 03:16:44;;;;;;;26.80;19.80;;;11.70;99.90;;;;;;5024524;28;20172;-72
2023/04/23 03:19:10;;;;;;;41.90;22.90;;;11.70;99.90;;;;;;5031184;28;20258;-72
2023/04/23 03:21:36;;;;;;;32.20;23.50;;;11.70;99.90;;;;;;5031315;28;20184;-72
2023/04/23 03:24:01;;;;;;;31.70;22.30;;;11.60;99.90;;;;;;5016999;28;20259;-72
2023/04/23 03:26:27;;;;;;;30.00;19.67;;;11.60;99.90;;;;;;5013552;28;20199;-72
2023/04/23 03:28:53;;;;;;;26.23;20.50;;;11.50;99.90;;;;;;5027728;28;20179;-72
2023/04/23 03:31:19;;;;;;;26.33;20.30;;;11.50;99.90;;;;;;5031910;28;20171;-72
2023/04/23 03:33:44;;;;;;;33.17;21.07;;;11.40;99.90;;;;;;5032343;28;20196;-72
2023/04/23 03:36:10;;;;;;;30.53;19.00;;;11.30;99.90;;;;;;5026450;28;20226;-72
2023/04/23 03:38:36;;;;;;;29.37;19.23;;;11.40;99.90;;;;;;5013684;28;20168;-72
2023/04/23 03:41:01;;;;;;;26.80;18.00;;;11.20;99.90;;;;;;5012730;28;20637;-71
2023/04/23 03:43:29;;;;;;;25.67;16.47;;;11.20;99.90;;;;;;5020246;28;20627;-72
2023/04/23 03:45:55;;;;;;;17.80;13.57;;;11.20;1.00;;;;;;5024963;28;20633;-72
2023/04/23 03:48:21;;;;;;;17.63;13.00;;;11.10;1.00;;;;;;5033247;28;20384;-72
2023/04/23 03:50:46;;;;;;;16.13;11.23;;;11.10;1.00;;;;;;5031336;28;20186;-72
2023/04/23 03:53:12;;;;;;;16.93;11.77;;;11.00;99.90;;;;;;5032099;28;20234;-72
2023/04/23 03:55:38;;;;;;;15.73;10.23;;;10.90;99.90;;;;;;5034690;28;20172;-72
2023/04/23 03:58:03;;;;;;;16.27;10.80;;;10.90;99.90;;;;;;5033613;28;20531;-72
2023/04/23 04:00:29;;;;;;;13.00;9.00;;;10.80;99.90;;;;;;5019773;28;20609;-72
2023/04/23 04:02:55;;;;;;;14.90;9.57;;;10.80;99.90;;;;;;5019576;28;20203;-72
2023/04/23 04:05:21;;;;;;;15.67;8.73;;;10.80;99.90;;;;;;5016954;28;20436;-72
2023/04/23 04:07:47;;;;;;;10.70;9.50;;;10.80;99.90;;;;;;5024747;28;20210;-72
2023/04/23 04:10:14;;;;;;;11.10;8.90;;;10.70;99.90;;;;;;5034879;28;20920;-72
2023/04/23 04:12:40;;;;;;;12.27;8.40;;;10.70;99.90;;;;;;5031291;28;20191;-72
2023/04/23 04:15:07;;;;;;;12.83;9.37;;;10.60;99.90;;;;;;5036930;28;20376;-72
2023/04/23 04:17:33;;;;;;;11.57;8.10;;;10.50;99.90;;;;;;5028045;28;20409;-72
2023/04/23 04:20:01;;;;;;;11.10;7.80;;;10.50;99.90;;;;;;5030464;28;20696;-72
2023/04/23 04:22:26;;;;;;;10.83;7.87;;;10.60;99.90;;;;;;5035041;28;20656;-73
2023/04/23 04:24:53;;;;;;;11.33;6.70;;;10.60;99.90;;;;;;5023087;28;20488;-72
2023/04/23 04:27:18;;;;;;;12.30;8.30;;;10.60;99.90;;;;;;5020778;28;20695;-72
2023/04/23 04:29:44;;;;;;;9.10;7.77;;;10.60;99.90;;;;;;5036731;28;20533;-72
2023/04/23 04:32:12;;;;;;;8.00;7.20;;;10.60;99.90;;;;;;5033674;28;20211;-72
2023/04/23 04:34:38;;;;;;;10.27;7.90;;;10.60;99.90;;;;;;5031438;28;20707;-72
2023/04/23 04:37:04;;;;;;;8.73;7.10;;;10.70;99.90;;;;;;5017336;28;20417;-72
2023/04/23 04:39:30;;;;;;;8.00;6.87;;;10.70;99.90;;;;;;5016084;28;20417;-71
2023/04/23 04:41:56;;;;;;;7.57;6.70;;;10.60;99.90;;;;;;5030562;28;21034;-72
2023/04/23 04:44:22;;;;;;;11.07;6.13;;;10.70;99.90;;;;;;5034991;28;20194;-72
2023/04/23 04:46:49;;;;;;;7.40;6.47;;;10.70;99.90;;;;;;5023114;28;20958;-72
2023/04/23 04:49:18;;;;;;;7.17;6.43;;;10.70;99.90;;;;;;5021118;28;20262;-72
2023/04/23 04:51:44;;;;;;;6.70;6.00;;;10.70;99.90;;;;;;5026788;28;20485;-72
2023/04/23 04:54:09;;;;;;;7.80;6.83;;;10.80;99.90;;;;;;5017129;28;20414;-72
2023/04/23 04:56:35;;;;;;;7.40;6.63;;;10.70;99.90;;;;;;5030284;28;20195;-72
2023/04/23 04:59:01;;;;;;;6.60;5.90;;;10.70;99.90;;;;;;5035486;28;20183;-72
2023/04/23 05:01:28;;;;;;;8.40;5.57;;;10.70;99.90;;;;;;5023114;28;20535;-72
2023/04/23 05:03:54;;;;;;;8.07;7.17;;;10.70;99.90;;;;;;5017674;28;20414;-71
2023/04/23 05:06:21;;;;;;;6.70;6.10;;;10.70;99.90;;;;;;5019311;28;20463;-72
2023/04/23 05:08:49;;;;;;;10.90;6.33;;;10.60;99.90;;;;;;5022708;28;20422;-71
2023/04/23 05:11:16;;;;;;;8.80;6.17;;;10.70;99.90;;;;;;5033321;28;20487;-72
2023/04/23 05:13:43;;;;;;;7.40;6.43;;;10.60;99.90;;;;;;5035238;28;20495;-72
2023/04/23 05:16:09;;;;;;;6.53;5.90;;;10.60;99.90;;;;;;5023789;28;20412;-72
2023/04/23 05:18:35;;;;;;;8.87;5.87;;;10.60;99.90;;;;;;5027509;28;20778;-72
2023/04/23 05:21:01;;;;;;;6.60;5.93;;;10.60;99.90;;;;;;5031749;28;20426;-72
2023/04/23 05:23:26;;;;;;;6.70;5.40;;;10.60;99.90;;;;;;5030455;28;20230;-71
2023/04/23 05:25:54;;;;;;;6.97;6.00;;;10.50;99.90;;;;;;5015519;28;20179;-72
2023/04/23 05:28:20;;;;;;;6.10;5.50;;;10.50;99.90;;;;;;5020438;28;20172;-71
2023/04/23 05:30:46;;;;;;;5.80;5.20;;;10.60;99.90;;;;;;5034384;28;20380;-72
2023/04/23 05:33:12;;;;;;;6.03;5.40;;;10.50;99.90;;;;;;5030882;28;20203;-72
2023/04/23 05:35:37;;;;;;;6.03;5.47;;;10.50;99.90;;;;;;5022794;28;20204;-71
2023/04/23 05:38:05;;;;;;;8.17;6.50;;;10.50;99.90;;;;;;5032463;28;20683;-72
2023/04/23 05:40:31;;;;;;;6.37;5.77;;;10.40;99.90;;;;;;5032074;28;20182;-72
2023/04/23 05:43:00;;;;;;;5.53;5.10;;;10.30;99.90;;;;;;5033896;28;20828;-71
2023/04/23 05:45:26;;;;;;;6.90;5.57;;;10.30;99.90;;;;;;5033152;28;20429;-74
2023/04/23 05:47:52;;;;;;;6.57;4.97;;;10.20;99.90;;;;;;5032791;28;20466;-73
2023/04/23 05:50:18;;;;;;;6.23;5.70;;;10.30;99.90;;;;;;5029057;28;20501;-72
2023/04/23 05:52:44;;;;;;;6.43;4.93;;;10.40;99.90;;;;;;5026869;28;20269;-73
2023/04/23 05:55:10;;;;;;;7.30;5.40;;;10.40;99.90;;;;;;5018809;28;20413;-72
2023/04/23 05:57:37;;;;;;;5.23;4.83;;;10.40;99.90;;;;;;5014860;28;20180;-72
2023/04/23 06:00:10;;;;;;;6.73;5.00;;;10.50;99.90;;;;;;5026738;28;20176;-72
2023/04/23 06:02:36;;;;;;;6.13;5.30;;;10.50;99.90;;;;;;5014745;28;20453;-70
2023/04/23 06:05:03;;;;;;;5.57;4.73;;;10.50;99.90;;;;;;5018763;28;20417;-69
2023/04/23 06:07:28;;;;;;;5.00;4.60;;;10.60;99.90;;;;;;5018967;28;20489;-70
2023/04/23 06:09:54;;;;;;;4.97;4.47;;;10.60;99.90;;;;;;5019874;28;20477;-70
2023/04/23 06:12:20;;;;;;;8.53;4.63;;;10.60;99.90;;;;;;5027130;28;20195;-70
2023/04/23 06:14:46;;;;;;;5.20;4.70;;;10.60;99.90;;;;;;5030791;28;20662;-72
2023/04/23 06:17:12;;;;;;;9.10;5.03;;;10.70;99.90;;;;;;5024368;28;20176;-70
2023/04/23 06:19:37;;;;;;;6.33;4.50;;;10.60;99.90;;;;;;5014839;28;20775;-70
2023/04/23 06:22:03;;;;;;;5.73;4.67;;;10.50;99.90;;;;;;5013825;28;20196;-71
2023/04/23 06:24:29;;;;;;;5.47;4.47;;;10.60;99.90;;;;;;5023493;28;20193;-70
2023/04/23 06:26:55;;;;;;;5.97;5.43;;;10.50;99.90;;;;;;5024930;28;20458;-72
2023/04/23 06:29:21;;;;;;;5.40;4.80;;;10.50;99.90;;;;;;5031321;28;20205;-71
2023/04/23 06:31:46;;;;;;;5.63;5.13;;;10.50;99.90;;;;;;5025409;28;20180;-70
2023/04/23 06:34:12;;;;;;;7.50;4.87;;;10.60;99.90;;;;;;5021200;28;20290;-72
2023/04/23 06:36:38;;;;;;;4.93;4.53;;;10.60;99.90;;;;;;5022469;28;20187;-70
2023/04/23 06:39:03;;;;;;;5.40;4.90;;;10.70;99.90;;;;;;5026269;28;20181;-72
2023/04/23 06:41:29;;;;;;;4.50;4.20;;;10.70;99.90;;;;;;5029440;28;20230;-71
2023/04/23 06:43:55;;;;;;;5.43;4.90;;;10.80;99.90;;;;;;5026969;28;20464;-72
2023/04/23 06:46:21;;;;;;;5.80;4.30;;;10.70;98.10;;;;;;5025031;28;20266;-70
2023/04/23 06:48:46;;;;;;;5.80;5.00;;;10.60;92.20;;;;;;5013580;28;20220;-69
2023/04/23 06:51:12;;;;;;;5.33;4.53;;;10.50;92.20;;;;;;5019502;28;20178;-70
2023/04/23 06:53:38;;;;;;;12.20;6.03;;;10.60;92.20;;;;;;5023533;28;20196;-70
2023/04/23 06:56:04;;;;;;;4.70;4.30;;;10.60;92.30;;;;;;5022406;28;20175;-69
2023/04/23 06:58:31;;;;;;;6.20;5.60;;;10.50;92.20;;;;;;5031160;28;20948;-69
2023/04/23 07:01:00;;;;;;;5.50;5.00;;;10.50;88.50;;;;;;5025248;28;20435;-69
2023/04/23 07:03:30;;;;;;;5.33;4.83;;;10.60;92.10;;;;;;5023689;28;20887;-71
2023/04/23 07:05:56;;;;;;;4.83;4.20;;;10.70;92.00;;;;;;5029575;28;20777;-71
2023/04/23 07:08:22;;;;;;;5.63;5.13;;;10.70;91.90;;;;;;5030917;28;20416;-72
2023/04/23 07:10:48;;;;;;;6.73;6.17;;;10.70;67.40;;;;;;5017301;28;20433;-70
2023/04/23 07:13:14;;;;;;;7.83;5.70;;;10.60;65.00;;;;;;5031908;28;20744;-71
2023/04/23 07:15:41;;;;;;;5.77;5.10;;;10.60;62.80;;;;;;5031155;28;20754;-70
2023/04/23 07:18:07;;;;;;;5.50;5.00;;;10.70;64.00;;;;;;5029378;28;20408;-70
2023/04/23 07:20:33;;;;;;;8.43;5.77;;;10.70;63.70;;;;;;5013658;28;20397;-70
2023/04/23 07:22:58;;;;;;;6.73;5.30;;;10.70;60.60;;;;;;5017521;28;20446;-72
2023/04/23 07:25:25;;;;;;;5.80;4.70;;;10.70;60.10;;;;;;5033471;28;20167;-70
2023/04/23 07:27:52;;;;;;;7.40;5.47;;;10.80;60.70;;;;;;5032300;28;20272;-71
2023/04/23 07:30:19;;;;;;;5.37;4.97;;;10.90;55.70;;;;;;5031698;28;20380;-72
2023/04/23 07:32:45;;;;;;;5.50;4.90;;;11.00;37.00;;;;;;5033156;28;20467;-69
2023/04/23 07:35:11;;;;;;;6.30;5.27;;;11.10;36.80;;;;;;5031186;28;20376;-70
2023/04/23 07:37:37;;;;;;;5.47;4.97;;;11.10;31.50;;;;;;5025863;28;20413;-70
2023/04/23 07:40:04;;;;;;;10.70;5.53;;;11.20;31.40;;;;;;5031727;28;20483;-69
2023/04/23 07:42:30;;;;;;;6.17;5.50;;;11.30;18.70;;;;;;5033188;28;20422;-72
2023/04/23 07:44:56;;;;;;;7.73;7.10;;;11.40;13.80;;;;;;5033677;28;20874;-72
2023/04/23 07:47:22;;;;;;;6.60;5.60;;;11.40;6.50;;;;;;5033146;28;20480;-70
2023/04/23 07:49:48;;;;;;;8.43;6.70;;;11.40;6.00;;;;;;5031363;28;20661;-71
2023/04/23 07:52:14;;;;;;;8.47;7.03;;;11.50;4.90;;;;;;5025261;28;20596;-70
2023/04/23 07:54:40;;;;;;;6.77;6.17;;;11.50;1.00;;;;;;5013245;28;20692;-71
2023/04/23 07:57:05;;;;;;;7.57;6.70;;;11.60;1.00;;;;;;5013457;28;20403;-70
2023/04/23 07:59:31;;;;;;;9.60;5.77;;;11.50;1.00;;;;;;5022311;28;20175;-70
2023/04/23 08:01:57;;;;;;;8.97;7.13;;;11.60;1.00;;;;;;5032084;28;20526;-70
2023/04/23 08:04:23;;;;;;;11.37;7.77;;;11.70;1.00;;;;;;5032126;28;20192;-72
2023/04/23 08:06:48;;;;;;;9.73;8.70;;;11.60;1.00;;;;;;5032923;28;20195;-70
2023/04/23 08:09:14;;;;;;;14.53;9.90;;;11.60;1.00;;;;;;5028715;28;20707;-70
2023/04/23 08:11:40;;;;;;;9.93;8.90;;;11.70;1.00;;;;;;5024603;28;20172;-72
2023/04/23 08:14:06;;;;;;;10.90;9.77;;;11.80;1.00;;;;;;5013149;28;20231;-71
2023/04/23 08:16:32;;;;;;;10.27;9.27;;;11.70;1.00;;;;;;5011823;28;20878;-71
2023/04/23 08:18:58;;;;;;;11.47;9.37;;;11.80;1.00;;;;;;5016521;28;20401;-69
2023/04/23 08:21:25;;;;;;;18.50;9.97;;;11.80;1.00;;;;;;5031791;28;20401;-72
2023/04/23 08:23:51;;;;;;;10.73;9.73;;;11.90;1.00;;;;;;5032817;28;20188;-71
2023/04/23 08:26:17;;;;;;;11.17;9.97;;;12.10;1.00;;;;;;5023689;28;20429;-71
2023/04/23 08:28:42;;;;;;;10.90;9.90;;;12.20;1.00;;;;;;5013704;28;20529;-70
2023/04/23 08:31:08;;;;;;;13.33;11.07;;;12.40;1.00;;;;;;5032119;28;20175;-72
2023/04/23 08:33:34;;;;;;;11.63;10.03;;;12.50;1.00;;;;;;5032182;28;20258;-72
2023/04/23 08:36:00;;;;;;;11.50;10.03;;;12.50;1.00;;;;;;5032074;28;20234;-70
2023/04/23 08:38:25;;;;;;;9.63;8.60;;;12.40;1.00;;;;;;5033574;28;20164;-72
2023/04/23 08:40:56;;;;;;;10.20;9.20;;;12.40;1.00;;;;;;5029445;28;20210;-72
2023/04/23 08:43:47;;;;;;;9.40;8.47;;;12.40;1.00;;;;;;5030830;28;20249;-72
2023/04/23 08:46:16;;;;;;;10.47;8.63;;;12.50;1.00;;;;;;5016522;28;20774;-70
2023/04/23 08:48:44;;;;;;;9.33;8.27;;;12.70;1.00;;;;;;5023214;28;20412;-70
2023/04/23 08:51:13;;;;;;;7.97;7.07;;;12.80;1.00;;;;;;5033985;28;20906;-71
2023/04/23 08:53:43;;;;;;;9.20;7.70;;;13.00;1.00;;;;;;5034780;28;20439;-72
2023/04/23 08:56:10;;;;;;;8.03;7.23;;;13.20;1.00;;;;;;5035843;28;20468;-71
2023/04/23 08:58:36;;;;;;;7.90;7.20;;;13.50;1.00;;;;;;5035704;28;20406;-71
2023/04/23 09:01:02;;;;;;;7.97;7.27;;;13.80;1.00;;;;;;5028361;28;20901;-72
2023/04/23 09:03:28;;;;;;;7.90;7.10;;;13.80;1.00;;;;;;5029228;28;20766;-71
2023/04/23 09:05:55;;;;;;;9.93;7.90;;;13.50;1.00;;;;;;5034705;28;20759;-71
2023/04/23 09:08:21;;;;;;;8.03;7.27;;;13.20;1.00;;;;;;5036255;28;20429;-72
2023/04/23 09:10:47;;;;;;;9.43;7.80;;;13.10;1.00;;;;;;5034757;28;20369;-71
2023/04/23 09:13:13;;;;;;;9.13;6.60;;;13.10;1.00;;;;;;5035464;28;20180;-72
2023/04/23 09:15:44;;;;;;;9.57;8.57;;;13.20;1.00;;;;;;5030007;28;20892;-71
2023/04/23 09:18:12;;;;;;;9.70;8.60;;;13.20;1.00;;;;;;5025258;28;20926;-72
2023/04/23 09:20:38;;;;;;;8.20;7.37;;;13.20;1.00;;;;;;5019035;28;20802;-71
2023/04/23 09:23:07;;;;;;;10.07;8.80;;;13.10;1.00;;;;;;5030661;28;20458;-74
2023/04/23 09:25:33;;;;;;;9.43;8.43;;;13.20;1.00;;;;;;5025907;28;20234;-74
2023/04/23 09:28:02;;;;;;;10.50;7.87;;;13.20;1.00;;;;;;5030458;28;20461;-75
2023/04/23 09:30:28;;;;;;;9.73;8.43;;;13.10;1.00;;;;;;5029619;28;20550;-75
2023/04/23 09:32:54;;;;;;;9.67;8.20;;;13.20;1.00;;;;;;5033188;28;20420;-74
2023/04/23 09:35:19;;;;;;;11.33;8.53;;;13.40;1.00;;;;;;5022047;28;20181;-68
2023/04/23 09:37:48;;;;;;;9.07;7.50;;;13.40;1.00;;;;;;5015036;28;20230;-74
2023/04/23 09:40:19;;;;;;;11.57;8.20;;;13.40;1.00;;;;;;5015209;28;20275;-68
2023/04/23 09:42:51;;;;;;;9.30;7.97;;;13.50;1.00;;;;;;5024536;28;20542;-69
2023/04/23 09:45:17;;;;;;;14.20;9.50;;;13.30;1.00;;;;;;5030195;28;20834;-69
2023/04/23 09:47:51;;;;;;;10.37;9.30;;;13.10;1.00;;;;;;5018933;28;20462;-74
2023/04/23 09:50:18;;;;;;;10.43;8.90;;;13.30;1.00;;;;;;5014893;28;20448;-68
2023/04/23 09:52:44;;;;;;;10.57;9.23;;;13.30;1.00;;;;;;5020791;28;20441;-67
2023/04/23 09:55:10;;;;;;;10.67;8.47;;;13.60;1.00;;;;;;5017719;28;20433;-69
2023/04/23 09:57:39;;;;;;;9.43;8.53;;;13.70;1.00;;;;;;5015636;28;20629;-69
2023/04/23 10:00:18;;;;;;;9.07;8.17;;;13.90;1.00;;;;;;5032829;28;20175;-74
2023/04/23 10:02:48;;;;;;;8.93;8.10;;;14.30;1.00;;;;;;5016883;28;20460;-75
2023/04/23 10:05:22;;;;;;;8.40;7.60;;;14.30;1.00;;;;;;5031485;28;20954;-74
2023/04/23 10:07:48;;;;;;;11.30;9.90;;;14.40;1.00;;;;;;5031324;28;21068;-69
2023/04/23 10:10:17;;;;;;;8.73;7.83;;;14.90;1.00;;;;;;5017070;28;20417;-74
2023/04/23 10:12:44;;;;;;;12.17;8.37;;;15.40;1.00;;;;;;5031361;28;20457;-74
2023/04/23 10:15:10;;;;;;;9.20;8.30;;;15.70;1.00;;;;;;5032592;28;20957;-69
2023/04/23 10:17:37;;;;;;;8.90;7.87;;;15.80;1.00;;;;;;5029451;28;20467;-76
2023/04/23 10:20:05;;;;;;;9.30;8.33;;;15.60;1.00;;;;;;5031189;28;20517;-74
2023/04/23 10:22:33;;;;;;;9.33;8.00;;;15.70;1.00;;;;;;5031550;28;20869;-72
2023/04/23 10:25:02;;;;;;;9.27;8.37;;;15.90;1.00;;;;;;5025648;28;20438;-72
2023/04/23 10:27:30;;;;;;;10.93;8.57;;;16.10;1.00;;;;;;5029966;28;20458;-71
2023/04/23 10:30:00;;;;;;;9.40;8.17;;;16.70;1.00;;;;;;5027225;28;20426;-70
2023/04/23 10:32:26;;;;;;;11.30;7.10;;;16.90;1.00;;;;;;5032792;28;20481;-75
2023/04/23 10:34:53;;;;;;;11.33;8.10;;;16.80;1.00;;;;;;5024018;28;20418;-74
2023/04/23 10:37:19;;;;;;;11.53;8.43;;;16.80;1.00;;;;;;5026910;28;20509;-74
2023/04/23 10:39:49;;;;;;;10.07;9.07;;;16.70;1.00;;;;;;5023386;28;20768;-75
2023/04/23 10:42:15;;;;;;;8.80;8.00;;;16.70;1.00;;;;;;5014575;28;20613;-74
2023/04/23 10:44:42;;;;;;;9.57;8.67;;;17.00;1.00;;;;;;5024061;28;20492;-73
2023/04/23 10:47:15;;;;;;;11.63;8.47;;;17.20;1.00;;;;;;5012492;28;20585;-72
2023/04/23 10:49:42;;;;;;;11.43;7.53;;;17.20;1.00;;;;;;5027526;28;20431;-72
2023/04/23 10:52:16;;;;;;;9.50;8.00;;;17.70;1.00;;;;;;5028111;28;20568;-73
2023/04/23 10:54:43;;;;;;;7.30;6.60;;;18.20;1.00;;;;;;5019395;28;20429;-73
2023/04/23 10:57:10;;;;;;;9.13;8.23;;;18.70;1.00;;;;;;5031482;28;20426;-74
2023/04/23 10:59:55;;;;;;;9.43;8.13;;;19.30;1.00;;;;;;5017659;28;20429;-74
2023/04/23 11:02:41;;;;;;;8.57;7.73;;;19.60;1.00;;;;;;5030945;28;20453;-73
2023/04/23 11:05:08;;;;;;;9.03;7.97;;;19.50;1.00;;;;;;5027379;28;20781;-73
2023/04/23 11:07:34;;;;;;;9.43;7.90;;;19.80;1.00;;;;;;5013540;28;20920;-74
2023/04/23 11:10:13;;;;;;;8.73;7.83;;;20.10;1.00;;;;;;5018757;28;20518;-71
2023/04/23 11:12:39;;;;;;;10.87;7.80;;;20.50;1.00;;;;;;5032664;28;20266;-70
2023/04/23 11:15:18;;;;;;;13.07;11.77;;;20.80;1.00;;;;;;5032194;28;20493;-72
2023/04/23 11:17:43;;;;;;;8.40;7.60;;;21.10;1.00;;;;;;5033447;28;20434;-72
2023/04/23 11:20:22;;;;;;;10.80;7.83;;;21.40;1.00;;;;;;5017747;28;20906;-72
2023/04/23 11:22:49;;;;;;;8.30;7.47;;;21.20;1.00;;;;;;5045443;28;20206;-72
2023/04/23 11:25:20;;;;;;;8.20;7.40;;;21.20;1.00;;;;;;5031464;28;20441;-72
2023/04/23 11:27:49;;;;;;;7.77;7.07;;;21.40;1.00;;;;;;5033315;28;20454;-72
2023/04/23 11:30:16;;;;;;;7.63;6.70;;;21.70;1.00;;;;;;5021790;28;21003;-73
2023/04/23 11:32:50;;;;;;;8.23;7.43;;;22.10;1.00;;;;;;5013886;28;20446;-72
2023/04/23 11:35:21;;;;;;;6.07;5.47;;;22.20;1.00;;;;;;5027066;28;20799;-72
2023/04/23 11:37:56;;;;;;;6.20;5.70;;;22.10;1.00;;;;;;5026120;28;20430;-72
2023/04/23 11:40:23;;;;;;;7.47;6.77;;;22.50;1.00;;;;;;5025298;28;20430;-73
2023/04/23 11:42:53;;;;;;;8.80;6.33;;;22.90;1.00;;;;;;5013992;28;20873;-72
2023/04/23 11:45:25;;;;;;;6.43;5.77;;;23.00;1.00;;;;;;5026167;28;20445;-72
2023/04/23 11:47:55;;;;;;;7.77;6.77;;;23.30;1.00;;;;;;5031934;28;20464;-73
2023/04/23 11:50:26;;;;;;;6.20;5.67;;;23.60;1.00;;;;;;5030051;28;20486;-73
2023/04/23 11:52:53;;;;;;;9.17;6.37;;;23.10;1.00;;;;;;5033439;28;20442;-72
2023/04/23 11:55:19;;;;;;;6.87;6.20;;;22.90;1.00;;;;;;5032778;28;20935;-72
2023/04/23 11:57:47;;;;;;;6.57;5.93;;;23.20;1.00;;;;;;5032929;28;20417;-72
2023/04/23 12:00:17;;;;;;;8.67;7.77;;;23.20;1.00;;;;;;5029334;28;20434;-72
2023/04/23 12:03:10;;;;;;;7.10;6.50;;;23.60;1.00;;;;;;5013264;28;20521;-72
2023/04/23 12:05:44;;;;;;;9.30;6.60;;;24.00;1.00;;;;;;5022115;28;20450;-73
2023/04/23 12:08:11;;;;;;;10.50;6.30;;;24.10;1.00;;;;;;5032879;28;20465;-72
2023/04/23 12:10:43;;;;;;;6.03;5.53;;;23.80;1.00;;;;;;5030795;28;20426;-72
2023/04/23 12:13:22;;;;;;;7.83;7.00;;;23.70;1.00;;;;;;5019687;28;20461;-72
2023/04/23 12:15:59;;;;;;;6.73;6.13;;;23.50;1.00;;;;;;5021619;28;20949;-72
2023/04/23 12:18:36;;;;;;;7.00;6.00;;;23.40;1.00;;;;;;5020357;28;20432;-72
2023/04/23 12:21:06;;;;;;;7.23;6.53;;;23.60;1.00;;;;;;5033609;28;20422;-72
2023/04/23 12:23:35;;;;;;;9.57;6.70;;;23.70;1.00;;;;;;5025462;28;20480;-72
2023/04/23 12:26:05;;;;;;;8.13;7.37;;;24.00;1.00;;;;;;5036426;28;20529;-72
2023/04/23 12:28:31;;;;;;;7.33;6.63;;;23.10;1.00;;;;;;5030247;28;20760;-72
2023/04/23 12:31:01;;;;;;;7.17;6.53;;;22.80;99.90;;;;;;5022296;28;20429;-75
2023/04/23 12:33:30;;;;;;;9.80;8.80;;;22.90;1.00;;;;;;5027068;28;20195;-70
2023/04/23 12:35:56;;;;;;;10.40;8.00;;;22.70;99.90;;;;;;5031312;28;20417;-68
2023/04/23 12:38:29;;;;;;;10.60;9.00;;;22.40;1.00;;;;;;5034272;28;20501;-67
2023/04/23 12:40:59;;;;;;;9.50;8.57;;;22.20;1.00;;;;;;5034193;28;20422;-67
2023/04/23 12:43:26;;;;;;;9.43;8.37;;;21.90;1.00;;;;;;5034038;28;21016;-68